sensor_id;sensor_type;location;lat;lon;timestamp;temperature;humidity
51853;DHT22;37894;53.172;6.598;2023-03-02T00:01:00;2.70;99.90
51853;DHT22;37894;53.172;6.598;2023-03-02T00:03:27;2.80;99.90
51853;DHT22;37894;53.172;6.598;2023-03-02T00:05:54;3.00;99.90
51853;DHT22;37894;53.172;6.598;2023-03-02T00:13:12;2.80;99.90
51853;DHT22;37894;53.172;6.598;2023-03-02T00:15:39;1.90;99.90
51853;DHT22;37894;53.172;6.598;2023-03-02T00:20:31;2.60;99.90
51853;DHT22;37894;53.172;6.598;2023-03-02T00:22:59;3.20;99.90
51853;DHT22;37894;53.172;6.598;2023-03-02T00:25:24;2.90;99.90
51853;DHT22;37894;53.172;6.598;2023-03-02T00:30:16;2.90;99.90
51853;DHT22;37894;53.172;6.598;2023-03-02T00:35:09;1.90;99.90
51853;DHT22;37894;53.172;6.598;2023-03-02T00:37:35;3.00;99.90
51853;DHT22;37894;53.172;6.598;2023-03-02T00:40:02;3.00;99.90
51853;DHT22;37894;53.172;6.598;2023-03-02T00:42:30;2.70;99.90
51853;DHT22;37894;53.172;6.598;2023-03-02T00:44:56;3.10;99.90
51853;DHT22;37894;53.172;6.598;2023-03-02T00:47:23;2.70;99.90
51853;DHT22;37894;53.172;6.598;2023-03-02T00:49:49;2.80;99.90
51853;DHT22;37894;53.172;6.598;2023-03-02T00:52:15;2.40;99.90
51853;DHT22;37894;53.172;6.598;2023-03-02T00:54:41;2.40;99.90
51853;DHT22;37894;53.172;6.598;2023-03-02T00:57:08;2.30;99.90
51853;DHT22;37894;53.172;6.598;2023-03-02T00:59:36;2.50;99.90
51853;DHT22;37894;53.172;6.598;2023-03-02T01:02:02;2.50;99.90
51853;DHT22;37894;53.172;6.598;2023-03-02T01:04:34;3.60;99.90
51853;DHT22;37894;53.172;6.598;2023-03-02T01:07:04;2.10;99.90
51853;DHT22;37894;53.172;6.598;2023-03-02T01:09:31;2.50;99.90
51853;DHT22;37894;53.172;6.598;2023-03-02T01:11:57;2.10;99.90
51853;DHT22;37894;53.172;6.598;2023-03-02T01:14:23;2.50;99.90
51853;DHT22;37894;53.172;6.598;2023-03-02T01:19:16;2.40;99.90
51853;DHT22;37894;53.172;6.598;2023-03-02T01:21:42;3.60;99.90
51853;DHT22;37894;53.172;6.598;2023-03-02T01:24:09;3.40;99.90
51853;DHT22;37894;53.172;6.598;2023-03-02T01:26:36;2.40;99.90
51853;DHT22;37894;53.172;6.598;2023-03-02T01:29:02;2.40;99.90
51853;DHT22;37894;53.172;6.598;2023-03-02T01:31:28;2.40;99.90
51853;DHT22;37894;53.172;6.598;2023-03-02T01:33:55;2.30;99.90
51853;DHT22;37894;53.172;6.598;2023-03-02T01:36:21;2.40;99.90
51853;DHT22;37894;53.172;6.598;2023-03-02T01:38:48;3.40;99.90
51853;DHT22;37894;53.172;6.598;2023-03-02T01:41:14;2.40;99.90
51853;DHT22;37894;53.172;6.598;2023-03-02T01:43:40;3.50;99.90
51853;DHT22;37894;53.172;6.598;2023-03-02T01:48:48;1.80;99.90
51853;DHT22;37894;53.172;6.598;2023-03-02T01:51:18;2.60;99.90
51853;DHT22;37894;53.172;6.598;2023-03-02T01:53:45;2.40;99.90
51853;DHT22;37894;53.172;6.598;2023-03-02T01:56:18;3.00;99.90
51853;DHT22;37894;53.172;6.598;2023-03-02T01:58:45;3.50;99.90
51853;DHT22;37894;53.172;6.598;2023-03-02T02:01:12;2.10;99.90
51853;DHT22;37894;53.172;6.598;2023-03-02T02:03:42;2.50;99.90
51853;DHT22;37894;53.172;6.598;2023-03-02T02:06:36;2.30;99.90
51853;DHT22;37894;53.172;6.598;2023-03-02T02:09:03;2.40;99.90
51853;DHT22;37894;53.172;6.598;2023-03-02T02:11:30;2.30;99.90
51853;DHT22;37894;53.172;6.598;2023-03-02T02:13:58;3.00;99.90
51853;DHT22;37894;53.172;6.598;2023-03-02T02:16:25;2.40;99.90
51853;DHT22;37894;53.172;6.598;2023-03-02T02:21:19;2.40;99.90
51853;DHT22;37894;53.172;6.598;2023-03-02T02:24:11;2.00;99.90
51853;DHT22;37894;53.172;6.598;2023-03-02T02:26:45;2.10;99.90
51853;DHT22;37894;53.172;6.598;2023-03-02T02:29:15;2.20;99.90
51853;DHT22;37894;53.172;6.598;2023-03-02T02:32:01;2.20;99.90
51853;DHT22;37894;53.172;6.598;2023-03-02T02:34:50;2.00;99.90
51853;DHT22;37894;53.172;6.598;2023-03-02T02:37:22;2.30;99.90
51853;DHT22;37894;53.172;6.598;2023-03-02T02:39:49;2.00;99.90
51853;DHT22;37894;53.172;6.598;2023-03-02T02:42:24;5.00;99.90
51853;DHT22;37894;53.172;6.598;2023-03-02T02:44:55;1.80;99.90
51853;DHT22;37894;53.172;6.598;2023-03-02T02:47:21;2.20;99.90
51853;DHT22;37894;53.172;6.598;2023-03-02T02:49:50;2.20;99.90
51853;DHT22;37894;53.172;6.598;2023-03-02T02:52:19;4.60;99.90
51853;DHT22;37894;53.172;6.598;2023-03-02T02:54:48;2.40;99.90
51853;DHT22;37894;53.172;6.598;2023-03-02T02:57:15;2.30;99.90
51853;DHT22;37894;53.172;6.598;2023-03-02T02:59:48;2.20;99.90
51853;DHT22;37894;53.172;6.598;2023-03-02T03:02:24;2.20;99.90
51853;DHT22;37894;53.172;6.598;2023-03-02T03:04:50;2.90;99.90
51853;DHT22;37894;53.172;6.598;2023-03-02T03:07:22;1.90;99.90
51853;DHT22;37894;53.172;6.598;2023-03-02T03:09:52;2.00;99.90
51853;DHT22;37894;53.172;6.598;2023-03-02T03:12:21;2.30;99.90
51853;DHT22;37894;53.172;6.598;2023-03-02T03:14:48;2.40;99.90
51853;DHT22;37894;53.172;6.598;2023-03-02T03:19:42;2.10;99.90
51853;DHT22;37894;53.172;6.598;2023-03-02T03:22:10;2.20;99.90
51853;DHT22;37894;53.172;6.598;2023-03-02T03:24:37;3.20;99.90
51853;DHT22;37894;53.172;6.598;2023-03-02T03:27:04;2.60;99.90
51853;DHT22;37894;53.172;6.598;2023-03-02T03:29:31;3.00;99.90
51853;DHT22;37894;53.172;6.598;2023-03-02T03:31:59;2.00;99.90
51853;DHT22;37894;53.172;6.598;2023-03-02T03:34:25;1.20;99.90
51853;DHT22;37894;53.172;6.598;2023-03-02T03:36:51;1.20;99.90
51853;DHT22;37894;53.172;6.598;2023-03-02T03:39:17;2.00;99.90
51853;DHT22;37894;53.172;6.598;2023-03-02T03:41:43;2.00;99.90
51853;DHT22;37894;53.172;6.598;2023-03-02T03:44:10;3.10;99.90
51853;DHT22;37894;53.172;6.598;2023-03-02T03:46:36;2.10;99.90
51853;DHT22;37894;53.172;6.598;2023-03-02T03:49:02;1.50;99.90
51853;DHT22;37894;53.172;6.598;2023-03-02T03:54:01;3.20;99.90
51853;DHT22;37894;53.172;6.598;2023-03-02T03:56:29;1.90;99.90
51853;DHT22;37894;53.172;6.598;2023-03-02T03:58:55;1.90;99.90
51853;DHT22;37894;53.172;6.598;2023-03-02T04:04:09;1.80;99.90
51853;DHT22;37894;53.172;6.598;2023-03-02T04:06:35;1.30;99.90
51853;DHT22;37894;53.172;6.598;2023-03-02T04:09:02;1.70;99.90
51853;DHT22;37894;53.172;6.598;2023-03-02T04:11:34;1.80;99.90
51853;DHT22;37894;53.172;6.598;2023-03-02T04:14:01;1.80;99.90
51853;DHT22;37894;53.172;6.598;2023-03-02T04:16:27;2.30;99.90
51853;DHT22;37894;53.172;6.598;2023-03-02T04:18:53;2.00;99.90
51853;DHT22;37894;53.172;6.598;2023-03-02T04:21:20;1.90;99.90
51853;DHT22;37894;53.172;6.598;2023-03-02T04:23:46;1.90;99.90
51853;DHT22;37894;53.172;6.598;2023-03-02T04:26:11;1.90;99.90
51853;DHT22;37894;53.172;6.598;2023-03-02T04:28:37;1.70;99.90
51853;DHT22;37894;53.172;6.598;2023-03-02T04:31:03;1.70;99.90
51853;DHT22;37894;53.172;6.598;2023-03-02T04:33:29;1.80;99.90
51853;DHT22;37894;53.172;6.598;2023-03-02T04:38:21;2.10;99.90
51853;DHT22;37894;53.172;6.598;2023-03-02T04:40:46;1.90;99.90
51853;DHT22;37894;53.172;6.598;2023-03-02T04:43:12;1.90;99.90
51853;DHT22;37894;53.172;6.598;2023-03-02T04:45:38;1.40;99.90
51853;DHT22;37894;53.172;6.598;2023-03-02T04:48:06;2.10;99.90
51853;DHT22;37894;53.172;6.598;2023-03-02T04:52:58;1.90;99.90
51853;DHT22;37894;53.172;6.598;2023-03-02T04:55:25;2.10;99.90
51853;DHT22;37894;53.172;6.598;2023-03-02T04:57:51;0.90;99.90
51853;DHT22;37894;53.172;6.598;2023-03-02T05:00:18;1.60;99.90
51853;DHT22;37894;53.172;6.598;2023-03-02T05:05:17;1.90;99.90
51853;DHT22;37894;53.172;6.598;2023-03-02T05:07:43;1.20;99.90
51853;DHT22;37894;53.172;6.598;2023-03-02T05:10:11;2.00;99.90
51853;DHT22;37894;53.172;6.598;2023-03-02T05:12:37;2.00;99.90
51853;DHT22;37894;53.172;6.598;2023-03-02T05:15:22;1.70;99.90
51853;DHT22;37894;53.172;6.598;2023-03-02T05:17:48;2.20;99.90
51853;DHT22;37894;53.172;6.598;2023-03-02T05:20:13;1.00;99.90
51853;DHT22;37894;53.172;6.598;2023-03-02T05:22:39;1.50;99.90
51853;DHT22;37894;53.172;6.598;2023-03-02T05:25:05;1.50;99.90
51853;DHT22;37894;53.172;6.598;2023-03-02T05:27:31;0.80;99.90
51853;DHT22;37894;53.172;6.598;2023-03-02T05:32:23;1.60;99.90
51853;DHT22;37894;53.172;6.598;2023-03-02T05:37:14;1.40;99.90
51853;DHT22;37894;53.172;6.598;2023-03-02T05:39:40;1.40;99.90
51853;DHT22;37894;53.172;6.598;2023-03-02T05:42:06;1.30;99.90
51853;DHT22;37894;53.172;6.598;2023-03-02T05:44:31;2.30;99.90
51853;DHT22;37894;53.172;6.598;2023-03-02T05:49:23;1.30;99.90
51853;DHT22;37894;53.172;6.598;2023-03-02T05:51:49;1.50;99.90
51853;DHT22;37894;53.172;6.598;2023-03-02T05:54:14;1.90;99.90
51853;DHT22;37894;53.172;6.598;2023-03-02T05:56:40;1.30;99.90
51853;DHT22;37894;53.172;6.598;2023-03-02T05:59:06;1.50;99.90
51853;DHT22;37894;53.172;6.598;2023-03-02T06:01:32;1.30;99.90
51853;DHT22;37894;53.172;6.598;2023-03-02T06:06:25;0.80;99.90
51853;DHT22;37894;53.172;6.598;2023-03-02T06:08:51;1.30;99.90
51853;DHT22;37894;53.172;6.598;2023-03-02T06:11:17;0.80;99.90
51853;DHT22;37894;53.172;6.598;2023-03-02T06:13:43;1.30;99.90
51853;DHT22;37894;53.172;6.598;2023-03-02T06:16:09;0.30;99.90
51853;DHT22;37894;53.172;6.598;2023-03-02T06:18:35;1.40;99.90
51853;DHT22;37894;53.172;6.598;2023-03-02T06:21:01;1.40;99.90
51853;DHT22;37894;53.172;6.598;2023-03-02T06:23:28;1.30;99.90
51853;DHT22;37894;53.172;6.598;2023-03-02T06:28:20;1.20;99.90
51853;DHT22;37894;53.172;6.598;2023-03-02T06:30:47;1.20;99.90
51853;DHT22;37894;53.172;6.598;2023-03-02T06:33:15;1.20;99.90
51853;DHT22;37894;53.172;6.598;2023-03-02T06:38:07;1.40;99.90
51853;DHT22;37894;53.172;6.598;2023-03-02T06:42:59;1.30;99.90
51853;DHT22;37894;53.172;6.598;2023-03-02T06:45:26;1.30;99.90
51853;DHT22;37894;53.172;6.598;2023-03-02T06:47:54;1.30;99.90
51853;DHT22;37894;53.172;6.598;2023-03-02T06:52:46;2.50;99.90
51853;DHT22;37894;53.172;6.598;2023-03-02T06:57:38;1.20;99.90
51853;DHT22;37894;53.172;6.598;2023-03-02T07:00:06;1.10;99.90
51853;DHT22;37894;53.172;6.598;2023-03-02T07:05:05;1.60;99.90
51853;DHT22;37894;53.172;6.598;2023-03-02T07:07:31;1.30;99.90
51853;DHT22;37894;53.172;6.598;2023-03-02T07:09:57;1.20;99.90
51853;DHT22;37894;53.172;6.598;2023-03-02T07:12:22;1.10;99.90
51853;DHT22;37894;53.172;6.598;2023-03-02T07:17:14;1.30;99.90
51853;DHT22;37894;53.172;6.598;2023-03-02T07:19:40;1.30;99.90
51853;DHT22;37894;53.172;6.598;2023-03-02T07:24:32;2.00;99.90
51853;DHT22;37894;53.172;6.598;2023-03-02T07:26:57;1.30;99.90
51853;DHT22;37894;53.172;6.598;2023-03-02T07:29:23;0.30;99.90
51853;DHT22;37894;53.172;6.598;2023-03-02T07:31:49;1.40;99.90
51853;DHT22;37894;53.172;6.598;2023-03-02T07:34:22;2.30;99.90
51853;DHT22;37894;53.172;6.598;2023-03-02T07:36:48;2.20;99.90
51853;DHT22;37894;53.172;6.598;2023-03-02T07:41:39;1.30;99.90
51853;DHT22;37894;53.172;6.598;2023-03-02T07:44:05;1.30;99.90
51853;DHT22;37894;53.172;6.598;2023-03-02T07:46:31;1.60;99.90
51853;DHT22;37894;53.172;6.598;2023-03-02T07:48:57;2.50;99.90
51853;DHT22;37894;53.172;6.598;2023-03-02T07:51:29;1.30;99.90
51853;DHT22;37894;53.172;6.598;2023-03-02T07:53:58;1.10;99.90
51853;DHT22;37894;53.172;6.598;2023-03-02T07:56:27;1.90;99.90
51853;DHT22;37894;53.172;6.598;2023-03-02T08:01:19;1.30;99.90
51853;DHT22;37894;53.172;6.598;2023-03-02T08:03:45;1.30;99.90
51853;DHT22;37894;53.172;6.598;2023-03-02T08:06:11;1.40;99.90
51853;DHT22;37894;53.172;6.598;2023-03-02T08:08:37;1.50;99.90
51853;DHT22;37894;53.172;6.598;2023-03-02T08:11:06;1.00;99.90
51853;DHT22;37894;53.172;6.598;2023-03-02T08:13:32;1.50;99.90
51853;DHT22;37894;53.172;6.598;2023-03-02T08:15:59;1.50;99.90
51853;DHT22;37894;53.172;6.598;2023-03-02T08:18:26;2.70;99.90
51853;DHT22;37894;53.172;6.598;2023-03-02T08:20:51;1.40;99.90
51853;DHT22;37894;53.172;6.598;2023-03-02T08:23:19;1.20;99.90
51853;DHT22;37894;53.172;6.598;2023-03-02T08:25:44;1.50;99.90
51853;DHT22;37894;53.172;6.598;2023-03-02T08:28:10;1.70;99.90
51853;DHT22;37894;53.172;6.598;2023-03-02T08:30:39;1.10;99.90
51853;DHT22;37894;53.172;6.598;2023-03-02T08:33:05;1.80;99.90
51853;DHT22;37894;53.172;6.598;2023-03-02T08:37:57;2.20;99.90
51853;DHT22;37894;53.172;6.598;2023-03-02T08:40:25;1.90;99.90
51853;DHT22;37894;53.172;6.598;2023-03-02T08:45:22;1.80;99.90
51853;DHT22;37894;53.172;6.598;2023-03-02T08:50:14;1.80;99.90
51853;DHT22;37894;53.172;6.598;2023-03-02T08:55:07;2.20;99.90
51853;DHT22;37894;53.172;6.598;2023-03-02T08:57:33;2.00;99.90
51853;DHT22;37894;53.172;6.598;2023-03-02T08:59:59;1.80;99.90
51853;DHT22;37894;53.172;6.598;2023-03-02T09:04:51;1.70;99.90
51853;DHT22;37894;53.172;6.598;2023-03-02T09:07:17;2.10;99.90
51853;DHT22;37894;53.172;6.598;2023-03-02T09:09:43;2.00;99.90
51853;DHT22;37894;53.172;6.598;2023-03-02T09:12:08;1.70;99.90
51853;DHT22;37894;53.172;6.598;2023-03-02T09:14:34;2.10;99.90
51853;DHT22;37894;53.172;6.598;2023-03-02T09:19:26;2.40;99.90
51853;DHT22;37894;53.172;6.598;2023-03-02T09:21:52;3.10;99.90
51853;DHT22;37894;53.172;6.598;2023-03-02T09:24:17;2.50;99.90
51853;DHT22;37894;53.172;6.598;2023-03-02T09:29:09;2.60;99.90
51853;DHT22;37894;53.172;6.598;2023-03-02T09:34:02;1.60;99.90
51853;DHT22;37894;53.172;6.598;2023-03-02T09:36:28;2.20;99.90
51853;DHT22;37894;53.172;6.598;2023-03-02T09:38:57;2.80;99.90
51853;DHT22;37894;53.172;6.598;2023-03-02T09:41:48;4.00;99.90
51853;DHT22;37894;53.172;6.598;2023-03-02T09:47:32;2.80;99.90
51853;DHT22;37894;53.172;6.598;2023-03-02T09:50:20;2.70;99.90
51853;DHT22;37894;53.172;6.598;2023-03-02T09:55:37;2.90;99.90
51853;DHT22;37894;53.172;6.598;2023-03-02T09:58:05;2.90;99.90
51853;DHT22;37894;53.172;6.598;2023-03-02T10:00:39;2.80;99.90
51853;DHT22;37894;53.172;6.598;2023-03-02T10:03:17;2.90;99.90
51853;DHT22;37894;53.172;6.598;2023-03-02T10:05:48;4.00;99.90
51853;DHT22;37894;53.172;6.598;2023-03-02T10:08:21;2.80;99.90
51853;DHT22;37894;53.172;6.598;2023-03-02T10:21:39;3.10;99.90
51853;DHT22;37894;53.172;6.598;2023-03-02T10:24:29;2.90;99.90
51853;DHT22;37894;53.172;6.598;2023-03-02T10:26:59;3.00;99.90
51853;DHT22;37894;53.172;6.598;2023-03-02T10:32:20;3.20;99.90
51853;DHT22;37894;53.172;6.598;2023-03-02T10:34:47;3.00;99.90
51853;DHT22;37894;53.172;6.598;2023-03-02T10:37:17;3.30;99.90
51853;DHT22;37894;53.172;6.598;2023-03-02T10:42:19;3.60;99.90
51853;DHT22;37894;53.172;6.598;2023-03-02T10:44:49;3.20;99.90
51853;DHT22;37894;53.172;6.598;2023-03-02T10:47:25;3.70;99.90
51853;DHT22;37894;53.172;6.598;2023-03-02T10:49:52;3.90;99.90
51853;DHT22;37894;53.172;6.598;2023-03-02T10:52:28;3.60;99.90
51853;DHT22;37894;53.172;6.598;2023-03-02T10:55:05;3.90;99.90
51853;DHT22;37894;53.172;6.598;2023-03-02T10:57:38;3.50;99.90
51853;DHT22;37894;53.172;6.598;2023-03-02T11:00:27;4.00;99.90
51853;DHT22;37894;53.172;6.598;2023-03-02T11:03:02;3.70;99.90
51853;DHT22;37894;53.172;6.598;2023-03-02T11:08:02;4.20;99.90
51853;DHT22;37894;53.172;6.598;2023-03-02T11:10:37;4.50;99.90
51853;DHT22;37894;53.172;6.598;2023-03-02T11:13:30;4.80;99.90
51853;DHT22;37894;53.172;6.598;2023-03-02T11:16:03;5.30;99.90
51853;DHT22;37894;53.172;6.598;2023-03-02T11:18:40;5.20;99.90
51853;DHT22;37894;53.172;6.598;2023-03-02T11:21:13;5.70;99.90
51853;DHT22;37894;53.172;6.598;2023-03-02T11:26:55;5.80;99.90
51853;DHT22;37894;53.172;6.598;2023-03-02T11:32:01;6.30;99.90
51853;DHT22;37894;53.172;6.598;2023-03-02T11:34:42;7.00;99.90
51853;DHT22;37894;53.172;6.598;2023-03-02T11:42:24;8.20;99.90
51853;DHT22;37894;53.172;6.598;2023-03-02T11:44:51;8.60;99.90
51853;DHT22;37894;53.172;6.598;2023-03-02T11:47:17;9.90;99.90
51853;DHT22;37894;53.172;6.598;2023-03-02T11:49:54;8.90;99.90
51853;DHT22;37894;53.172;6.598;2023-03-02T11:52:29;8.80;99.90
51853;DHT22;37894;53.172;6.598;2023-03-02T11:55:17;8.50;99.90
51853;DHT22;37894;53.172;6.598;2023-03-02T11:57:46;8.70;99.90
51853;DHT22;37894;53.172;6.598;2023-03-02T12:00:33;8.80;99.90
51853;DHT22;37894;53.172;6.598;2023-03-02T12:05:36;9.30;99.90
51853;DHT22;37894;53.172;6.598;2023-03-02T12:13:38;8.30;99.90
51853;DHT22;37894;53.172;6.598;2023-03-02T12:19:27;8.60;99.90
51853;DHT22;37894;53.172;6.598;2023-03-02T12:22:00;8.80;99.90
51853;DHT22;37894;53.172;6.598;2023-03-02T12:24:29;8.70;99.90
51853;DHT22;37894;53.172;6.598;2023-03-02T12:27:21;8.50;99.90
51853;DHT22;37894;53.172;6.598;2023-03-02T12:30:19;8.20;99.90
51853;DHT22;37894;53.172;6.598;2023-03-02T12:35:37;7.60;99.90
51853;DHT22;37894;53.172;6.598;2023-03-02T12:40:58;7.50;99.90
51853;DHT22;37894;53.172;6.598;2023-03-02T12:43:36;6.90;99.90
51853;DHT22;37894;53.172;6.598;2023-03-02T12:54:24;7.00;99.90
51853;DHT22;37894;53.172;6.598;2023-03-02T12:57:36;6.80;99.90
51853;DHT22;37894;53.172;6.598;2023-03-02T12:59:55;6.70;99.90
51853;DHT22;37894;53.172;6.598;2023-03-02T13:03:11;6.90;99.90
51853;DHT22;37894;53.172;6.598;2023-03-02T13:05:22;6.60;99.90
51853;DHT22;37894;53.172;6.598;2023-03-02T13:10:34;6.40;99.90
51853;DHT22;37894;53.172;6.598;2023-03-02T13:15:58;6.50;99.90
51853;DHT22;37894;53.172;6.598;2023-03-02T13:18:33;6.50;99.90
51853;DHT22;37894;53.172;6.598;2023-03-02T13:21:02;5.80;99.90
51853;DHT22;37894;53.172;6.598;2023-03-02T13:23:30;6.20;99.90
51853;DHT22;37894;53.172;6.598;2023-03-02T13:26:02;6.20;99.90
51853;DHT22;37894;53.172;6.598;2023-03-02T13:28:37;7.10;99.90
51853;DHT22;37894;53.172;6.598;2023-03-02T13:31:06;6.10;99.90
51853;DHT22;37894;53.172;6.598;2023-03-02T13:33:43;5.60;99.90
51853;DHT22;37894;53.172;6.598;2023-03-02T13:36:17;6.10;99.90
51853;DHT22;37894;53.172;6.598;2023-03-02T13:38:48;5.50;99.90
51853;DHT22;37894;53.172;6.598;2023-03-02T13:41:24;5.60;99.90
51853;DHT22;37894;53.172;6.598;2023-03-02T13:43:50;6.20;99.90
51853;DHT22;37894;53.172;6.598;2023-03-02T13:49:05;6.10;99.90
51853;DHT22;37894;53.172;6.598;2023-03-02T13:51:33;6.00;99.90
51853;DHT22;37894;53.172;6.598;2023-03-02T13:54:04;6.20;99.90
51853;DHT22;37894;53.172;6.598;2023-03-02T13:56:36;6.00;99.90
51853;DHT22;37894;53.172;6.598;2023-03-02T13:59:03;6.30;99.90
51853;DHT22;37894;53.172;6.598;2023-03-02T14:01:29;6.30;99.90
51853;DHT22;37894;53.172;6.598;2023-03-02T14:06:21;6.80;99.90
51853;DHT22;37894;53.172;6.598;2023-03-02T14:08:47;6.80;99.90
51853;DHT22;37894;53.172;6.598;2023-03-02T14:11:15;6.80;99.90
51853;DHT22;37894;53.172;6.598;2023-03-02T14:13:48;6.80;99.90
51853;DHT22;37894;53.172;6.598;2023-03-02T14:16:16;7.70;99.90
51853;DHT22;37894;53.172;6.598;2023-03-02T14:21:11;7.70;99.90
51853;DHT22;37894;53.172;6.598;2023-03-02T14:23:38;8.10;99.90
51853;DHT22;37894;53.172;6.598;2023-03-02T14:28:51;8.00;99.90
51853;DHT22;37894;53.172;6.598;2023-03-02T14:31:16;8.00;99.90
51853;DHT22;37894;53.172;6.598;2023-03-02T14:33:44;7.50;99.90
51853;DHT22;37894;53.172;6.598;2023-03-02T14:36:14;8.40;99.90
51853;DHT22;37894;53.172;6.598;2023-03-02T14:38:42;7.30;99.90
51853;DHT22;37894;53.172;6.598;2023-03-02T14:41:20;7.10;99.90
51853;DHT22;37894;53.172;6.598;2023-03-02T14:43:47;7.20;99.90
51853;DHT22;37894;53.172;6.598;2023-03-02T14:48:39;7.10;99.90
51853;DHT22;37894;53.172;6.598;2023-03-02T14:51:19;6.90;99.90
51853;DHT22;37894;53.172;6.598;2023-03-02T14:53:46;6.80;99.90
51853;DHT22;37894;53.172;6.598;2023-03-02T14:56:13;6.20;99.90
51853;DHT22;37894;53.172;6.598;2023-03-02T14:58:39;6.70;99.90
51853;DHT22;37894;53.172;6.598;2023-03-02T15:01:05;6.70;99.90
51853;DHT22;37894;53.172;6.598;2023-03-02T15:05:56;6.50;99.90
51853;DHT22;37894;53.172;6.598;2023-03-02T15:08:22;6.40;99.90
51853;DHT22;37894;53.172;6.598;2023-03-02T15:10:49;6.50;99.90
51853;DHT22;37894;53.172;6.598;2023-03-02T15:13:15;6.50;99.90
51853;DHT22;37894;53.172;6.598;2023-03-02T15:15:42;6.50;99.90
51853;DHT22;37894;53.172;6.598;2023-03-02T15:18:09;5.50;99.90
51853;DHT22;37894;53.172;6.598;2023-03-02T15:20:36;6.10;99.90
51853;DHT22;37894;53.172;6.598;2023-03-02T15:23:02;6.40;99.90
51853;DHT22;37894;53.172;6.598;2023-03-02T15:27:55;7.20;99.90
51853;DHT22;37894;53.172;6.598;2023-03-02T15:32:51;7.40;99.90
51853;DHT22;37894;53.172;6.598;2023-03-02T15:35:28;6.50;99.90
51853;DHT22;37894;53.172;6.598;2023-03-02T15:40:23;6.50;99.90
51853;DHT22;37894;53.172;6.598;2023-03-02T15:42:48;6.00;99.90
51853;DHT22;37894;53.172;6.598;2023-03-02T15:45:14;5.30;99.90
51853;DHT22;37894;53.172;6.598;2023-03-02T15:47:40;6.10;99.90
51853;DHT22;37894;53.172;6.598;2023-03-02T15:52:31;6.10;99.90
51853;DHT22;37894;53.172;6.598;2023-03-02T15:54:57;6.20;99.90
51853;DHT22;37894;53.172;6.598;2023-03-02T15:57:26;6.00;99.90
51853;DHT22;37894;53.172;6.598;2023-03-02T15:59:52;5.10;99.90
51853;DHT22;37894;53.172;6.598;2023-03-02T16:02:18;6.00;99.90
51853;DHT22;37894;53.172;6.598;2023-03-02T16:07:09;6.20;99.90
51853;DHT22;37894;53.172;6.598;2023-03-02T16:09:35;5.60;99.90
51853;DHT22;37894;53.172;6.598;2023-03-02T16:16:53;5.40;99.90
51853;DHT22;37894;53.172;6.598;2023-03-02T16:19:18;5.80;99.90
51853;DHT22;37894;53.172;6.598;2023-03-02T16:21:45;5.60;99.90
51853;DHT22;37894;53.172;6.598;2023-03-02T16:24:11;5.60;99.90
51853;DHT22;37894;53.172;6.598;2023-03-02T16:26:38;5.40;99.90
51853;DHT22;37894;53.172;6.598;2023-03-02T16:29:04;5.60;99.90
51853;DHT22;37894;53.172;6.598;2023-03-02T16:31:33;5.30;99.90
51853;DHT22;37894;53.172;6.598;2023-03-02T16:34:03;5.20;99.90
51853;DHT22;37894;53.172;6.598;2023-03-02T16:36:32;5.50;99.90
51853;DHT22;37894;53.172;6.598;2023-03-02T16:38:58;5.30;99.90
51853;DHT22;37894;53.172;6.598;2023-03-02T16:43:55;5.20;99.90
51853;DHT22;37894;53.172;6.598;2023-03-02T16:46:22;4.40;99.90
51853;DHT22;37894;53.172;6.598;2023-03-02T16:48:49;5.40;99.90
51853;DHT22;37894;53.172;6.598;2023-03-02T16:51:16;5.00;99.90
51853;DHT22;37894;53.172;6.598;2023-03-02T16:53:42;4.60;99.90
51853;DHT22;37894;53.172;6.598;2023-03-02T16:56:09;5.00;99.90
51853;DHT22;37894;53.172;6.598;2023-03-02T16:58:36;4.90;99.90
51853;DHT22;37894;53.172;6.598;2023-03-02T17:01:14;4.20;99.90
51853;DHT22;37894;53.172;6.598;2023-03-02T17:03:40;4.20;99.90
51853;DHT22;37894;53.172;6.598;2023-03-02T17:06:07;4.50;99.90
51853;DHT22;37894;53.172;6.598;2023-03-02T17:11:00;4.80;99.90
51853;DHT22;37894;53.172;6.598;2023-03-02T17:15:52;5.30;99.90
51853;DHT22;37894;53.172;6.598;2023-03-02T17:18:18;4.30;99.90
51853;DHT22;37894;53.172;6.598;2023-03-02T17:23:09;4.40;99.90
51853;DHT22;37894;53.172;6.598;2023-03-02T17:25:38;3.40;99.90
51853;DHT22;37894;53.172;6.598;2023-03-02T17:28:04;3.50;99.90
51853;DHT22;37894;53.172;6.598;2023-03-02T17:30:30;4.20;99.90
51853;DHT22;37894;53.172;6.598;2023-03-02T17:35:22;3.90;99.90
51853;DHT22;37894;53.172;6.598;2023-03-02T17:37:47;3.90;99.90
51853;DHT22;37894;53.172;6.598;2023-03-02T17:40:14;3.80;99.90
51853;DHT22;37894;53.172;6.598;2023-03-02T17:42:40;3.30;99.90
51853;DHT22;37894;53.172;6.598;2023-03-02T17:45:07;4.60;99.90
51853;DHT22;37894;53.172;6.598;2023-03-02T17:49:59;3.50;99.90
51853;DHT22;37894;53.172;6.598;2023-03-02T17:52:25;3.50;99.90
51853;DHT22;37894;53.172;6.598;2023-03-02T17:54:51;4.60;99.90
51853;DHT22;37894;53.172;6.598;2023-03-02T17:59:48;3.50;99.90
51853;DHT22;37894;53.172;6.598;2023-03-02T18:02:16;4.30;99.90
51853;DHT22;37894;53.172;6.598;2023-03-02T18:07:09;2.50;99.90
51853;DHT22;37894;53.172;6.598;2023-03-02T18:09:34;3.30;99.90
51853;DHT22;37894;53.172;6.598;2023-03-02T18:16:55;3.20;99.90
51853;DHT22;37894;53.172;6.598;2023-03-02T18:21:47;2.90;99.90
51853;DHT22;37894;53.172;6.598;2023-03-02T18:29:05;2.80;99.90
51853;DHT22;37894;53.172;6.598;2023-03-02T18:31:31;3.10;99.90
51853;DHT22;37894;53.172;6.598;2023-03-02T18:33:59;2.80;99.90
51853;DHT22;37894;53.172;6.598;2023-03-02T18:38:51;2.90;99.90
51853;DHT22;37894;53.172;6.598;2023-03-02T18:41:20;2.80;99.90
51853;DHT22;37894;53.172;6.598;2023-03-02T18:46:19;2.70;99.90
51853;DHT22;37894;53.172;6.598;2023-03-02T18:51:12;2.80;99.90
51853;DHT22;37894;53.172;6.598;2023-03-02T18:53:38;3.00;99.90
51853;DHT22;37894;53.172;6.598;2023-03-02T18:56:05;3.90;99.90
51853;DHT22;37894;53.172;6.598;2023-03-02T19:00:58;1.70;99.90
51853;DHT22;37894;53.172;6.598;2023-03-02T19:03:24;2.30;99.90
51853;DHT22;37894;53.172;6.598;2023-03-02T19:05:51;2.10;99.90
51853;DHT22;37894;53.172;6.598;2023-03-02T19:08:18;2.50;99.90
51853;DHT22;37894;53.172;6.598;2023-03-02T19:10:45;3.60;99.90
51853;DHT22;37894;53.172;6.598;2023-03-02T19:13:10;1.60;99.90
51853;DHT22;37894;53.172;6.598;2023-03-02T19:15:38;2.30;99.90
51853;DHT22;37894;53.172;6.598;2023-03-02T19:18:04;3.50;99.90
51853;DHT22;37894;53.172;6.598;2023-03-02T19:22:56;2.30;99.90
51853;DHT22;37894;53.172;6.598;2023-03-02T19:25:22;2.50;99.90
51853;DHT22;37894;53.172;6.598;2023-03-02T19:30:19;3.10;99.90
51853;DHT22;37894;53.172;6.598;2023-03-02T19:35:15;2.20;99.90
51853;DHT22;37894;53.172;6.598;2023-03-02T19:37:44;2.20;99.90
51853;DHT22;37894;53.172;6.598;2023-03-02T19:40:11;2.50;99.90
51853;DHT22;37894;53.172;6.598;2023-03-02T19:45:07;2.60;99.90
51853;DHT22;37894;53.172;6.598;2023-03-02T19:47:37;1.80;99.90
51853;DHT22;37894;53.172;6.598;2023-03-02T19:50:03;2.00;99.90
51853;DHT22;37894;53.172;6.598;2023-03-02T19:54:55;2.70;99.90